createdAt,value
2022-12-31T00:04:32.075Z,4.93
2022-12-31T00:09:34.741Z,4.98
2022-12-31T00:14:37.439Z,5.03
2022-12-31T00:19:40.144Z,5.04
2022-12-31T00:24:42.858Z,5.08
2022-12-31T00:29:45.565Z,5.13
2022-12-31T00:34:48.286Z,5.16
2022-12-31T00:39:51.063Z,5.19
2022-12-31T00:44:53.753Z,5.27
2022-12-31T00:49:56.459Z,5.30
2022-12-31T00:54:59.266Z,5.33
2022-12-31T01:00:01.905Z,5.38
2022-12-31T01:05:05.721Z,5.42
2022-12-31T01:10:09.167Z,5.43
2022-12-31T01:15:11.808Z,5.48
2022-12-31T01:20:14.549Z,5.50
2022-12-31T01:25:17.297Z,5.43
2022-12-31T01:30:20.200Z,5.44
2022-12-31T01:35:24.006Z,5.42
2022-12-31T01:40:26.686Z,5.44
2022-12-31T01:45:29.630Z,5.48
2022-12-31T01:50:35.888Z,5.58
2022-12-31T01:56:03.539Z,5.70
2022-12-31T02:01:08.817Z,5.81
2022-12-31T02:06:29.148Z,5.87
2022-12-31T02:11:36.687Z,5.85
2022-12-31T02:16:53.721Z,5.75
2022-12-31T02:22:24.108Z,5.79
2022-12-31T02:27:58.076Z,5.84
2022-12-31T02:33:24.564Z,5.94
2022-12-31T02:38:55.616Z,6.04
2022-12-31T02:43:58.283Z,6.15
2022-12-31T02:49:16.253Z,6.25
2022-12-31T02:54:29.234Z,6.28
2022-12-31T02:59:59.710Z,6.28
2022-12-31T03:05:03.877Z,6.23
2022-12-31T03:10:07.868Z,6.20
2022-12-31T03:15:30.996Z,6.16
2022-12-31T03:21:01.460Z,6.14
2022-12-31T03:26:12.510Z,6.14
2022-12-31T03:31:16.444Z,6.17
2022-12-31T03:36:19.344Z,6.18
2022-12-31T03:41:22.090Z,6.21
2022-12-31T03:46:24.837Z,6.24
2022-12-31T03:51:27.512Z,6.28
2022-12-31T03:56:30.170Z,6.29
2022-12-31T04:01:32.993Z,6.30
2022-12-31T04:06:35.805Z,6.30
2022-12-31T04:11:38.465Z,6.31
2022-12-31T04:16:41.151Z,6.33
2022-12-31T04:21:43.895Z,6.32
2022-12-31T04:26:46.681Z,6.31
2022-12-31T04:31:49.593Z,6.29
2022-12-31T04:36:52.799Z,6.28
2022-12-31T04:41:55.726Z,6.24
2022-12-31T04:46:58.514Z,6.21
2022-12-31T04:52:01.309Z,6.12
2022-12-31T04:57:03.979Z,6.03
2022-12-31T05:02:06.964Z,5.92
2022-12-31T05:07:09.919Z,5.85
2022-12-31T05:12:12.644Z,5.81
2022-12-31T05:17:15.409Z,5.77
2022-12-31T05:22:30.124Z,5.72
2022-12-31T05:27:32.999Z,5.67
2022-12-31T05:32:35.761Z,5.65
2022-12-31T05:37:38.989Z,5.65
2022-12-31T05:42:41.701Z,5.67
2022-12-31T05:47:44.985Z,5.71
2022-12-31T05:52:47.932Z,5.75
2022-12-31T05:57:50.729Z,5.81
2022-12-31T06:02:53.673Z,5.88
2022-12-31T06:07:56.534Z,5.96
2022-12-31T06:12:59.341Z,6.03
2022-12-31T06:18:02.013Z,6.09
2022-12-31T06:23:05.570Z,6.14
2022-12-31T06:28:13.231Z,6.19
2022-12-31T06:33:20.784Z,6.22
2022-12-31T06:38:24.935Z,6.26
2022-12-31T06:43:27.620Z,6.30
2022-12-31T06:48:30.822Z,6.32
2022-12-31T06:53:33.921Z,6.36
2022-12-31T06:58:37.439Z,6.40
2022-12-31T07:03:49.096Z,6.44
2022-12-31T07:09:03.719Z,6.48
2022-12-31T07:14:32.652Z,6.50
2022-12-31T07:20:11.267Z,6.54
2022-12-31T07:25:17.000Z,6.58
2022-12-31T07:30:24.283Z,6.63
2022-12-31T07:35:41.717Z,6.67
2022-12-31T07:41:32.338Z,6.71
2022-12-31T07:46:51.161Z,6.74
2022-12-31T07:51:54.457Z,6.76
2022-12-31T07:56:57.850Z,6.81
2022-12-31T08:02:14.856Z,6.84
2022-12-31T08:07:31.719Z,6.89
2022-12-31T08:12:35.665Z,6.94
2022-12-31T08:17:38.536Z,6.97
2022-12-31T08:22:41.168Z,7.03
2022-12-31T08:27:49.715Z,7.12
2022-12-31T08:33:17.181Z,7.20
2022-12-31T08:38:34.832Z,7.29
2022-12-31T08:44:15.289Z,7.35
2022-12-31T08:49:18.735Z,7.38
2022-12-31T08:54:22.115Z,7.41
2022-12-31T08:59:36.878Z,7.42
2022-12-31T09:05:17.753Z,7.46
2022-12-31T09:10:39.341Z,7.51
2022-12-31T09:15:56.291Z,7.59
2022-12-31T09:20:59.000Z,7.65
2022-12-31T09:26:10.928Z,7.73
2022-12-31T09:31:17.750Z,7.83
2022-12-31T09:36:49.767Z,7.92
2022-12-31T09:42:23.795Z,7.96
2022-12-31T09:48:04.069Z,8.01
2022-12-31T09:53:25.212Z,8.06
2022-12-31T09:58:49.219Z,8.11
2022-12-31T10:04:20.223Z,8.15
2022-12-31T10:09:31.067Z,8.16
2022-12-31T10:14:58.882Z,8.21
2022-12-31T10:20:16.919Z,8.23
2022-12-31T10:25:38.369Z,8.23
2022-12-31T10:31:10.735Z,8.25
2022-12-31T10:36:45.757Z,8.29
2022-12-31T10:42:10.313Z,8.39
2022-12-31T10:47:22.023Z,8.43
2022-12-31T10:52:42.342Z,8.44
2022-12-31T10:58:10.433Z,8.44
2022-12-31T11:03:40.682Z,8.44
2022-12-31T11:09:17.678Z,8.44
2022-12-31T11:14:29.853Z,8.44
2022-12-31T11:19:32.990Z,8.42
2022-12-31T11:24:58.954Z,8.43
2022-12-31T11:30:11.279Z,8.45
2022-12-31T11:35:21.112Z,8.49
2022-12-31T11:40:54.390Z,8.55
2022-12-31T11:46:06.423Z,8.60
2022-12-31T11:51:09.141Z,8.64
2022-12-31T11:56:20.520Z,8.69
2022-12-31T12:01:44.395Z,8.75
2022-12-31T12:06:47.483Z,8.81
2022-12-31T12:12:00.304Z,8.83
2022-12-31T12:17:08.194Z,8.85
2022-12-31T12:22:13.980Z,8.88
2022-12-31T12:27:27.248Z,8.90
2022-12-31T12:32:29.916Z,8.93
2022-12-31T12:37:35.482Z,8.98
2022-12-31T12:42:47.647Z,9.03
2022-12-31T12:48:03.116Z,9.10
2022-12-31T12:53:11.783Z,9.17
2022-12-31T12:58:26.409Z,9.23
2022-12-31T13:04:14.636Z,9.30
2022-12-31T13:09:35.606Z,9.33
2022-12-31T13:15:02.724Z,9.39
2022-12-31T13:20:18.913Z,9.44
2022-12-31T13:25:35.341Z,9.48
2022-12-31T13:30:52.614Z,9.55
2022-12-31T13:36:05.431Z,9.64
2022-12-31T13:41:16.860Z,9.75
2022-12-31T13:46:44.171Z,9.82
2022-12-31T13:51:50.506Z,9.93
2022-12-31T13:56:54.518Z,10.09
2022-12-31T14:02:32.942Z,10.22
2022-12-31T14:07:45.756Z,10.30
2022-12-31T14:13:05.622Z,10.34
2022-12-31T14:18:32.678Z,10.35
2022-12-31T14:23:51.146Z,10.40
2022-12-31T14:29:06.258Z,10.44
2022-12-31T14:34:24.912Z,10.51
2022-12-31T14:39:36.313Z,10.57
2022-12-31T14:44:47.037Z,10.62
2022-12-31T14:50:01.888Z,10.67
2022-12-31T14:55:15.046Z,10.73
2022-12-31T15:00:39.301Z,10.80
2022-12-31T15:05:54.934Z,10.90
2022-12-31T15:11:18.219Z,11.05
2022-12-31T15:16:40.054Z,11.16
2022-12-31T15:21:54.956Z,11.24
2022-12-31T15:27:03.880Z,11.31
2022-12-31T15:32:16.516Z,11.35
2022-12-31T15:37:32.934Z,11.41
2022-12-31T15:43:02.589Z,11.48
2022-12-31T15:48:23.813Z,11.53
2022-12-31T15:53:32.234Z,11.60
2022-12-31T15:58:36.790Z,11.68
2022-12-31T16:03:45.099Z,11.73
2022-12-31T16:08:49.720Z,11.72
2022-12-31T16:13:54.914Z,11.75
2022-12-31T16:18:59.473Z,11.81
2022-12-31T16:24:21.822Z,11.88
2022-12-31T16:29:25.047Z,11.92
2022-12-31T16:34:28.608Z,11.94
2022-12-31T16:39:37.962Z,11.93
2022-12-31T16:44:41.225Z,11.94
2022-12-31T16:49:48.631Z,11.93
2022-12-31T16:54:52.646Z,11.92
2022-12-31T17:00:00.223Z,11.91
2022-12-31T17:05:03.046Z,11.93
2022-12-31T17:10:08.847Z,11.93
2022-12-31T17:15:19.674Z,11.96
2022-12-31T17:20:27.199Z,11.95
2022-12-31T17:25:36.678Z,11.97
2022-12-31T17:30:40.479Z,12.00
2022-12-31T17:35:44.943Z,12.01
2022-12-31T17:40:53.607Z,12.00
2022-12-31T17:45:56.521Z,11.98
2022-12-31T17:51:00.961Z,11.94
2022-12-31T17:56:07.430Z,11.94
2022-12-31T18:01:13.934Z,12.02
2022-12-31T18:06:17.398Z,12.09
2022-12-31T18:11:23.266Z,12.14
2022-12-31T18:16:26.047Z,12.20
2022-12-31T18:21:34.633Z,12.25
2022-12-31T18:26:37.361Z,12.24
2022-12-31T18:31:41.885Z,12.20
2022-12-31T18:36:44.707Z,12.19
2022-12-31T18:41:49.632Z,12.18
2022-12-31T18:46:52.490Z,12.15
2022-12-31T18:51:55.969Z,12.10
2022-12-31T18:56:58.990Z,12.06
2022-12-31T19:02:01.891Z,11.99
2022-12-31T19:07:04.729Z,11.92
2022-12-31T19:12:12.770Z,11.87
2022-12-31T19:17:15.517Z,11.82
2022-12-31T19:22:18.322Z,11.78
2022-12-31T19:27:21.010Z,11.76
2022-12-31T19:32:23.682Z,11.79
2022-12-31T19:37:26.356Z,11.80
2022-12-31T19:42:29.053Z,11.80
2022-12-31T19:47:31.749Z,11.81
2022-12-31T19:52:34.410Z,11.79
2022-12-31T19:57:37.204Z,11.79
2022-12-31T20:02:40.836Z,11.84
2022-12-31T20:07:43.729Z,11.88
2022-12-31T20:12:46.423Z,11.91
2022-12-31T20:17:49.100Z,11.92
2022-12-31T20:22:51.832Z,11.97
2022-12-31T20:27:55.753Z,11.99
2022-12-31T20:32:58.454Z,11.99
2022-12-31T20:38:01.362Z,12.02
2022-12-31T20:43:04.541Z,12.04
2022-12-31T20:48:07.369Z,12.04
2022-12-31T20:53:10.075Z,12.05
2022-12-31T20:58:12.775Z,12.09
2022-12-31T21:03:53.546Z,12.10
2022-12-31T21:08:41.595Z,12.12
2022-12-31T21:13:44.315Z,12.13
2022-12-31T21:18:47.018Z,12.10
2022-12-31T21:23:50.222Z,12.09
2022-12-31T21:28:53.760Z,12.09
2022-12-31T21:33:56.762Z,12.09
2022-12-31T21:38:59.549Z,12.16
2022-12-31T21:44:02.470Z,12.22
2022-12-31T21:49:05.179Z,12.27
2022-12-31T21:54:28.127Z,12.33
2022-12-31T22:00:09.053Z,12.36
2022-12-31T22:05:18.641Z,12.40
2022-12-31T22:10:26.128Z,12.46
2022-12-31T22:15:28.850Z,12.52
2022-12-31T22:20:31.594Z,12.56
2022-12-31T22:25:35.435Z,12.59
2022-12-31T22:30:38.147Z,12.59
2022-12-31T22:35:40.999Z,12.65
2022-12-31T22:40:43.819Z,12.75
2022-12-31T22:45:46.530Z,12.80
2022-12-31T22:50:57.229Z,12.85
2022-12-31T22:56:00.294Z,12.87
2022-12-31T23:01:17.902Z,12.90
2022-12-31T23:06:23.841Z,12.96
2022-12-31T23:11:26.505Z,13.02
2022-12-31T23:16:48.641Z,13.13
2022-12-31T23:22:10.955Z,13.33
2022-12-31T23:27:13.960Z,13.53
2022-12-31T23:32:17.702Z,13.65
2022-12-31T23:37:20.372Z,13.83
2022-12-31T23:42:23.182Z,13.92
2022-12-31T23:47:26.188Z,13.96
2022-12-31T23:52:28.991Z,14.04
2022-12-31T23:57:31.899Z,14.10
